createdAt,value
2022-12-18T00:01:26.424Z,59.55
2022-12-18T00:03:54.867Z,47.50
2022-12-18T00:06:23.139Z,45.80
2022-12-18T00:08:50.240Z,56.13
2022-12-18T00:11:19.411Z,60.05
2022-12-18T00:13:47.133Z,51.33
2022-12-18T00:16:19.412Z,45.95
2022-12-18T00:18:47.579Z,44.10
2022-12-18T00:21:15.783Z,52.75
2022-12-18T00:23:44.858Z,70.90
2022-12-18T00:26:17.860Z,44.42
2022-12-18T00:28:45.827Z,48.90
2022-12-18T00:31:19.373Z,53.97
2022-12-18T00:36:19.258Z,49.03
2022-12-18T00:38:47.343Z,48.17
2022-12-18T00:41:36.945Z,51.63
2022-12-18T00:44:05.024Z,42.45
2022-12-18T00:46:33.101Z,48.47
2022-12-18T00:49:00.170Z,55.17
2022-12-18T00:51:27.625Z,47.97
2022-12-18T00:53:54.673Z,58.30
2022-12-18T00:56:25.174Z,84.10
2022-12-18T00:58:52.190Z,48.97
2022-12-18T01:01:19.532Z,57.70
2022-12-18T01:03:47.548Z,55.60
2022-12-18T01:06:16.894Z,59.13
2022-12-18T01:08:44.561Z,55.67
2022-12-18T01:11:14.642Z,54.03
2022-12-18T01:13:42.025Z,61.33
2022-12-18T01:16:11.753Z,53.95
2022-12-18T01:18:39.170Z,65.07
2022-12-18T01:21:11.035Z,59.63
2022-12-18T01:23:39.043Z,58.55
2022-12-18T01:26:08.670Z,62.35
2022-12-18T01:28:39.335Z,53.17
2022-12-18T01:31:20.758Z,62.80
2022-12-18T01:33:48.111Z,55.05
2022-12-18T01:36:27.226Z,55.90
2022-12-18T01:38:55.472Z,47.10
2022-12-18T01:41:48.875Z,56.30
2022-12-18T01:45:03.806Z,53.97
2022-12-18T01:47:40.728Z,51.50
2022-12-18T01:50:29.617Z,56.03
2022-12-18T01:53:07.114Z,64.65
2022-12-18T01:55:41.316Z,61.60
2022-12-18T01:58:08.435Z,60.38
2022-12-18T02:00:36.657Z,52.13
2022-12-18T02:03:03.926Z,52.70
2022-12-18T02:05:45.014Z,64.57
2022-12-18T02:08:21.771Z,57.50
2022-12-18T02:11:08.044Z,51.53
2022-12-18T02:14:12.199Z,49.92
2022-12-18T02:16:54.453Z,49.60
2022-12-18T02:19:47.558Z,58.00
2022-12-18T02:22:39.688Z,48.13
2022-12-18T02:25:25.047Z,47.50
2022-12-18T02:27:55.548Z,51.58
2022-12-18T02:30:23.210Z,47.42
2022-12-18T02:32:53.861Z,56.45
2022-12-18T02:35:25.091Z,53.78
2022-12-18T02:37:53.955Z,44.80
2022-12-18T02:40:24.473Z,62.15
2022-12-18T02:42:51.476Z,44.17
2022-12-18T02:45:19.215Z,45.30
2022-12-18T02:47:49.363Z,50.53
2022-12-18T02:50:34.379Z,45.15
2022-12-18T02:53:15.543Z,37.03
2022-12-18T02:55:48.245Z,49.65
2022-12-18T02:58:21.811Z,48.67
2022-12-18T03:01:12.985Z,45.38
2022-12-18T03:04:08.539Z,45.05
2022-12-18T03:06:42.647Z,46.40
2022-12-18T03:09:15.772Z,42.83
2022-12-18T03:12:07.256Z,46.60
2022-12-18T03:14:38.351Z,38.42
2022-12-18T03:17:10.075Z,44.25
2022-12-18T03:19:40.207Z,36.85
2022-12-18T03:22:08.724Z,32.25
2022-12-18T03:24:39.981Z,37.45
2022-12-18T03:27:12.475Z,40.60
2022-12-18T03:29:45.479Z,36.00
2022-12-18T03:32:21.440Z,36.78
2022-12-18T03:34:52.255Z,38.13
2022-12-18T03:37:19.489Z,31.20
2022-12-18T03:39:46.597Z,35.72
2022-12-18T03:42:21.573Z,35.65
2022-12-18T03:45:02.894Z,42.63
2022-12-18T03:47:47.932Z,37.05
2022-12-18T03:50:23.091Z,31.73
2022-12-18T03:53:03.168Z,31.92
2022-12-18T03:55:33.694Z,37.33
2022-12-18T03:58:04.410Z,35.00
2022-12-18T04:00:32.788Z,30.05
2022-12-18T04:03:02.313Z,36.53
2022-12-18T04:05:30.787Z,41.25
2022-12-18T04:07:58.695Z,33.40
2022-12-18T04:10:25.707Z,35.50
2022-12-18T04:12:57.326Z,34.67
2022-12-18T04:15:24.747Z,33.08
2022-12-18T04:17:51.888Z,42.60
2022-12-18T04:20:18.988Z,32.63
2022-12-18T04:22:46.005Z,36.65
2022-12-18T04:25:13.789Z,39.67
2022-12-18T04:27:41.075Z,37.63
2022-12-18T04:30:09.166Z,35.58
2022-12-18T04:32:40.956Z,42.70
2022-12-18T04:35:11.477Z,39.30
2022-12-18T04:37:38.594Z,36.22
2022-12-18T04:40:07.663Z,32.35
2022-12-18T04:42:35.091Z,36.88
2022-12-18T04:45:02.813Z,43.38
2022-12-18T04:47:29.945Z,37.75
2022-12-18T04:49:57.056Z,41.75
2022-12-18T04:52:27.074Z,43.03
2022-12-18T04:54:54.064Z,36.65
2022-12-18T04:57:21.139Z,29.00
2022-12-18T04:59:48.339Z,35.85
2022-12-18T05:02:15.424Z,31.35
2022-12-18T05:04:42.505Z,34.83
2022-12-18T05:07:09.582Z,32.70
2022-12-18T05:09:39.785Z,31.17
2022-12-18T05:12:07.623Z,31.67
2022-12-18T05:14:34.691Z,30.60
2022-12-18T05:17:01.742Z,37.67
2022-12-18T05:19:28.810Z,33.95
2022-12-18T05:21:55.944Z,27.42
2022-12-18T05:24:22.993Z,35.13
2022-12-18T05:26:50.203Z,35.17
2022-12-18T05:29:17.289Z,27.13
2022-12-18T05:31:44.633Z,33.70
2022-12-18T05:34:12.266Z,29.88
2022-12-18T05:36:40.006Z,38.65
2022-12-18T05:39:08.017Z,38.63
2022-12-18T05:41:35.769Z,38.53
2022-12-18T05:44:02.807Z,36.78
2022-12-18T05:46:30.909Z,28.17
2022-12-18T05:49:02.066Z,25.08
2022-12-18T05:51:29.268Z,34.25
2022-12-18T05:53:56.469Z,32.05
2022-12-18T05:56:24.235Z,34.85
2022-12-18T05:58:55.378Z,25.45
2022-12-18T06:01:27.420Z,28.35
2022-12-18T06:03:56.236Z,29.05
2022-12-18T06:06:25.538Z,21.88
2022-12-18T06:08:53.405Z,24.15
2022-12-18T06:11:23.617Z,24.50
2022-12-18T06:13:58.175Z,24.92
2022-12-18T06:16:26.491Z,24.05
2022-12-18T06:18:53.777Z,22.77
2022-12-18T06:21:21.028Z,24.13
2022-12-18T06:23:48.282Z,22.08
2022-12-18T06:26:16.237Z,25.35
2022-12-18T06:28:43.420Z,20.05
2022-12-18T06:31:11.245Z,22.65
2022-12-18T06:33:39.929Z,20.13
2022-12-18T06:36:13.172Z,20.38
2022-12-18T06:38:43.161Z,21.60
2022-12-18T06:41:11.317Z,24.92
2022-12-18T06:43:39.035Z,22.00
2022-12-18T06:46:07.835Z,24.10
2022-12-18T06:48:36.116Z,17.65
2022-12-18T06:51:03.768Z,23.98
2022-12-18T06:53:30.845Z,22.55
2022-12-18T06:56:10.337Z,20.80
2022-12-18T06:58:38.976Z,21.58
2022-12-18T07:01:11.360Z,23.15
2022-12-18T07:03:41.484Z,24.38
2022-12-18T07:06:18.690Z,24.63
2022-12-18T07:08:47.253Z,20.00
2022-12-18T07:11:14.634Z,18.63
2022-12-18T07:13:42.514Z,18.85
2022-12-18T07:16:22.353Z,28.67
2022-12-18T07:18:51.669Z,21.15
2022-12-18T07:21:20.561Z,31.60
2022-12-18T07:23:49.037Z,22.15
2022-12-18T07:26:19.351Z,25.52
2022-12-18T07:28:46.526Z,23.75
2022-12-18T07:31:16.694Z,27.73
2022-12-18T07:33:44.866Z,26.20
2022-12-18T07:36:12.544Z,20.50
2022-12-18T07:38:40.994Z,20.63
2022-12-18T07:41:13.251Z,18.58
2022-12-18T07:43:42.616Z,25.25
2022-12-18T07:46:11.118Z,20.90
2022-12-18T07:48:41.679Z,23.88
2022-12-18T07:51:09.244Z,27.67
2022-12-18T07:53:37.899Z,39.85
2022-12-18T07:56:28.256Z,23.13
2022-12-18T07:58:56.834Z,23.92
2022-12-18T08:01:24.449Z,21.40
2022-12-18T08:03:52.157Z,26.52
2022-12-18T08:06:22.530Z,22.02
2022-12-18T08:08:53.475Z,19.60
2022-12-18T08:11:20.710Z,20.13
2022-12-18T08:13:48.688Z,18.83
2022-12-18T08:16:17.192Z,21.15
2022-12-18T08:18:44.358Z,20.45
2022-12-18T08:21:17.726Z,19.00
2022-12-18T08:23:46.135Z,20.50
2022-12-18T08:26:14.211Z,18.08
2022-12-18T08:28:41.899Z,19.20
2022-12-18T08:31:10.097Z,21.75
2022-12-18T08:33:39.490Z,16.02
2022-12-18T08:36:07.640Z,20.73
2022-12-18T08:38:35.552Z,19.38
2022-12-18T08:41:08.406Z,19.83
2022-12-18T08:43:55.081Z,19.55
2022-12-18T08:46:24.812Z,24.45
2022-12-18T08:48:52.795Z,18.35
2022-12-18T08:51:20.486Z,20.75
2022-12-18T08:53:48.327Z,18.98
2022-12-18T08:56:15.644Z,16.52
2022-12-18T08:58:42.822Z,18.17
2022-12-18T09:01:12.847Z,16.98
2022-12-18T09:03:41.536Z,22.23
2022-12-18T09:06:10.086Z,17.10
2022-12-18T09:08:40.558Z,21.10
2022-12-18T09:11:14.594Z,18.60
2022-12-18T09:13:42.240Z,21.75
2022-12-18T09:16:10.191Z,23.13
2022-12-18T09:18:37.589Z,20.02
2022-12-18T09:21:14.748Z,16.13
2022-12-18T09:23:42.126Z,23.63
2022-12-18T09:26:09.505Z,20.70
2022-12-18T09:28:37.505Z,19.40
2022-12-18T09:31:08.641Z,26.42
2022-12-18T09:33:37.473Z,27.90
2022-12-18T09:36:07.600Z,30.55
2022-12-18T09:38:35.870Z,20.63
2022-12-18T09:41:31.980Z,24.65
2022-12-18T09:44:04.066Z,15.60
2022-12-18T09:46:44.854Z,20.95
2022-12-18T09:49:19.296Z,14.88
2022-12-18T09:51:51.902Z,17.75
2022-12-18T09:54:27.628Z,16.80
2022-12-18T09:56:55.167Z,16.08
2022-12-18T09:59:30.813Z,18.35
2022-12-18T10:01:58.103Z,18.55
2022-12-18T10:04:29.893Z,15.07
2022-12-18T10:07:20.220Z,13.43
2022-12-18T10:10:14.497Z,16.20
2022-12-18T10:13:04.055Z,11.80
2022-12-18T10:16:05.725Z,13.95
2022-12-18T10:18:51.722Z,17.70
2022-12-18T10:21:44.355Z,15.02
2022-12-18T10:24:40.952Z,16.67
2022-12-18T10:27:22.420Z,13.45
2022-12-18T10:29:49.914Z,14.10
2022-12-18T10:32:23.512Z,17.92
2022-12-18T10:37:29.401Z,12.25
2022-12-18T10:40:11.902Z,12.15
2022-12-18T10:42:43.035Z,13.32
2022-12-18T10:45:16.340Z,25.45
2022-12-18T10:47:49.453Z,18.63
2022-12-18T10:50:20.416Z,19.77
2022-12-18T10:52:58.188Z,20.95
2022-12-18T10:55:32.261Z,14.20
2022-12-18T10:58:26.446Z,13.82
2022-12-18T11:01:02.792Z,13.55
2022-12-18T11:03:37.463Z,22.38
2022-12-18T11:06:09.295Z,11.35
2022-12-18T11:08:40.466Z,14.70
2022-12-18T11:11:24.902Z,14.35
2022-12-18T11:14:00.734Z,15.13
2022-12-18T11:16:29.377Z,14.73
2022-12-18T11:19:38.800Z,16.45
2022-12-18T11:22:19.893Z,13.82
2022-12-18T11:25:30.918Z,15.82
2022-12-18T11:27:52.308Z,17.48
2022-12-18T11:30:31.524Z,15.70
2022-12-18T11:33:16.727Z,14.02
2022-12-18T11:35:54.625Z,21.98
2022-12-18T11:38:26.165Z,12.77
2022-12-18T11:41:00.318Z,13.30
2022-12-18T11:43:32.467Z,11.50
2022-12-18T11:46:07.210Z,12.20
2022-12-18T11:48:42.519Z,13.43
2022-12-18T11:51:15.661Z,14.20
2022-12-18T11:53:42.788Z,17.17
2022-12-18T11:56:33.059Z,12.25
2022-12-18T11:59:37.722Z,20.13
2022-12-18T12:02:37.250Z,17.63
2022-12-18T12:05:22.738Z,16.73
2022-12-18T12:07:58.712Z,12.90
2022-12-18T12:10:50.175Z,22.45
2022-12-18T12:13:56.171Z,16.85
2022-12-18T12:17:11.226Z,13.45
2022-12-18T12:20:33.528Z,13.50
2022-12-18T12:23:08.246Z,16.63
2022-12-18T12:25:45.557Z,14.35
2022-12-18T12:28:37.756Z,14.85
2022-12-18T12:31:16.866Z,17.45
2022-12-18T12:34:19.445Z,11.95
2022-12-18T12:37:02.056Z,13.48
2022-12-18T12:39:33.547Z,15.43
2022-12-18T12:42:21.247Z,14.65
2022-12-18T12:44:56.343Z,12.02
2022-12-18T12:47:31.709Z,13.65
2022-12-18T12:50:02.456Z,18.98
2022-12-18T12:52:56.687Z,14.13
2022-12-18T12:55:26.205Z,11.50
2022-12-18T12:58:00.112Z,16.70
2022-12-18T13:00:31.365Z,14.77
2022-12-18T13:02:58.916Z,14.98
2022-12-18T13:05:57.359Z,16.63
2022-12-18T13:08:31.189Z,12.40
2022-12-18T13:11:53.671Z,22.00
2022-12-18T13:14:38.248Z,13.88
2022-12-18T13:17:21.226Z,13.50
2022-12-18T13:20:15.416Z,15.33
2022-12-18T13:22:49.638Z,15.10
2022-12-18T13:25:33.324Z,14.93
2022-12-18T13:28:10.070Z,17.15
2022-12-18T13:30:37.032Z,17.77
2022-12-18T13:33:17.398Z,17.77
2022-12-18T13:35:47.746Z,19.48
2022-12-18T13:38:27.133Z,14.63
2022-12-18T13:40:56.230Z,17.55
2022-12-18T13:43:23.250Z,17.73
2022-12-18T13:46:07.276Z,15.95
2022-12-18T13:48:39.154Z,16.75
2022-12-18T13:51:11.952Z,13.88
2022-12-18T13:54:02.667Z,19.17
2022-12-18T13:56:40.314Z,18.17
2022-12-18T13:59:15.059Z,15.75
2022-12-18T14:01:55.308Z,13.50
2022-12-18T14:04:28.722Z,21.95
2022-12-18T14:07:13.979Z,13.95
2022-12-18T14:09:46.255Z,14.88
2022-12-18T14:12:41.047Z,21.08
2022-12-18T14:15:18.702Z,14.88
2022-12-18T14:17:45.801Z,21.05
2022-12-18T14:20:16.666Z,19.08
2022-12-18T14:22:49.371Z,15.38
2022-12-18T14:25:24.054Z,13.80
2022-12-18T14:28:15.136Z,17.67
2022-12-18T14:30:45.227Z,19.27
2022-12-18T14:33:27.383Z,23.85
2022-12-18T14:36:07.107Z,18.63
2022-12-18T14:38:40.080Z,16.17
2022-12-18T14:41:15.192Z,17.85
2022-12-18T14:43:45.046Z,17.48
2022-12-18T14:46:37.106Z,14.43
2022-12-18T14:49:30.155Z,20.23
2022-12-18T14:51:58.698Z,24.23
2022-12-18T14:54:27.785Z,30.42
2022-12-18T14:57:23.719Z,24.20
2022-12-18T14:59:51.965Z,19.63
2022-12-18T15:02:28.654Z,18.23
2022-12-18T15:05:13.091Z,16.73
2022-12-18T15:07:45.743Z,16.02
2022-12-18T15:10:17.850Z,15.38
2022-12-18T15:12:57.966Z,15.05
2022-12-18T15:15:34.141Z,15.48
2022-12-18T15:18:02.694Z,17.50
2022-12-18T15:20:33.626Z,15.73
2022-12-18T15:23:00.750Z,17.95
2022-12-18T15:25:33.991Z,16.77
2022-12-18T15:28:01.234Z,15.30
2022-12-18T15:30:28.581Z,16.83
2022-12-18T15:33:24.498Z,17.60
2022-12-18T15:36:21.328Z,17.60
2022-12-18T15:38:55.123Z,17.45
2022-12-18T15:41:24.876Z,20.85
2022-12-18T15:43:53.722Z,17.63
2022-12-18T15:46:23.917Z,20.65
2022-12-18T15:48:56.678Z,25.25
2022-12-18T15:51:33.086Z,18.65
2022-12-18T15:54:07.135Z,19.85
2022-12-18T15:56:52.588Z,20.05
2022-12-18T15:59:21.611Z,24.77
2022-12-18T16:01:53.065Z,16.13
2022-12-18T16:04:21.865Z,19.13
2022-12-18T16:09:37.696Z,19.85
2022-12-18T16:12:07.210Z,16.63
2022-12-18T16:14:37.056Z,17.52
2022-12-18T16:17:10.293Z,19.75
2022-12-18T16:19:37.294Z,18.63
2022-12-18T16:22:04.368Z,14.82
2022-12-18T16:24:34.226Z,18.63
2022-12-18T16:27:01.512Z,17.10
2022-12-18T16:29:29.854Z,17.17
2022-12-18T16:31:58.652Z,18.35
2022-12-18T16:34:29.284Z,20.55
2022-12-18T16:37:06.529Z,22.80
2022-12-18T16:39:36.553Z,15.88
2022-12-18T16:42:07.368Z,20.00
2022-12-18T16:44:35.697Z,19.90
2022-12-18T16:47:03.863Z,19.30
2022-12-18T16:49:31.109Z,19.40
2022-12-18T16:51:58.327Z,17.55
2022-12-18T16:54:25.544Z,21.30
2022-12-18T16:56:52.696Z,19.95
2022-12-18T16:59:19.921Z,28.48
2022-12-18T17:01:47.231Z,23.90
2022-12-18T17:04:14.995Z,18.10
2022-12-18T17:06:44.777Z,21.55
2022-12-18T17:09:15.499Z,20.70
2022-12-18T17:11:43.738Z,23.98
2022-12-18T17:14:16.107Z,28.88
2022-12-18T17:16:43.617Z,39.90
2022-12-18T17:19:16.852Z,34.03
2022-12-18T17:21:48.235Z,21.98
2022-12-18T17:24:15.992Z,23.27
2022-12-18T17:26:44.365Z,18.40
2022-12-18T17:29:17.212Z,21.13
2022-12-18T17:31:47.099Z,21.40
2022-12-18T17:34:14.891Z,21.15
2022-12-18T17:36:43.238Z,24.30
2022-12-18T17:39:17.424Z,31.05
2022-12-18T17:41:44.496Z,23.27
2022-12-18T17:44:11.808Z,24.35
2022-12-18T17:46:39.832Z,21.13
2022-12-18T17:49:07.516Z,24.90
2022-12-18T17:51:35.704Z,19.95
2022-12-18T17:54:02.784Z,21.05
2022-12-18T17:56:29.942Z,21.65
2022-12-18T17:58:57.709Z,30.88
2022-12-18T18:01:25.901Z,20.98
2022-12-18T18:03:55.955Z,22.58
2022-12-18T18:06:23.820Z,20.25
2022-12-18T18:08:51.926Z,29.17
2022-12-18T18:11:39.793Z,19.20
2022-12-18T18:14:19.476Z,23.75
2022-12-18T18:16:49.269Z,22.08
2022-12-18T18:19:19.067Z,25.38
2022-12-18T18:21:48.742Z,20.73
2022-12-18T18:24:19.143Z,22.20
2022-12-18T18:26:47.089Z,23.00
2022-12-18T18:29:19.809Z,21.00
2022-12-18T18:31:47.870Z,24.67
2022-12-18T18:34:20.824Z,22.67
2022-12-18T18:36:48.062Z,26.75
2022-12-18T18:39:15.509Z,24.13
2022-12-18T18:41:45.414Z,24.67
2022-12-18T18:44:16.571Z,20.70
2022-12-18T18:46:45.082Z,24.23
2022-12-18T18:49:13.797Z,18.83
2022-12-18T18:51:42.209Z,25.48
2022-12-18T18:54:09.977Z,20.85
2022-12-18T18:57:04.131Z,22.02
2022-12-18T18:59:30.296Z,26.00
2022-12-18T19:02:00.698Z,28.65
2022-12-18T19:04:33.749Z,23.83
2022-12-18T19:07:01.237Z,22.90
2022-12-18T19:09:29.370Z,26.38
2022-12-18T19:12:15.480Z,25.23
2022-12-18T19:14:43.666Z,24.67
2022-12-18T19:17:11.085Z,23.85
2022-12-18T19:19:39.041Z,30.65
2022-12-18T19:22:07.574Z,26.58
2022-12-18T19:24:36.506Z,30.85
2022-12-18T19:27:03.537Z,25.55
2022-12-18T19:29:30.705Z,22.33
2022-12-18T19:31:57.886Z,26.48
2022-12-18T19:34:25.064Z,21.10
2022-12-18T19:36:56.537Z,19.83
2022-12-18T19:39:26.836Z,28.60
2022-12-18T19:41:54.620Z,27.52
2022-12-18T19:44:21.871Z,25.42
2022-12-18T19:46:51.953Z,25.25
2022-12-18T19:49:19.046Z,26.90
2022-12-18T19:51:46.213Z,21.33
2022-12-18T19:54:17.082Z,25.90
2022-12-18T19:56:46.029Z,18.42
2022-12-18T19:59:13.488Z,28.02
2022-12-18T20:01:41.618Z,27.10
2022-12-18T20:04:09.163Z,31.73
2022-12-18T20:06:49.023Z,25.90
2022-12-18T20:09:17.176Z,20.45
2022-12-18T20:11:45.049Z,23.98
2022-12-18T20:14:13.901Z,29.58
2022-12-18T20:16:41.619Z,21.35
2022-12-18T20:19:11.267Z,22.55
2022-12-18T20:21:38.564Z,26.83
2022-12-18T20:24:08.967Z,21.90
2022-12-18T20:26:41.141Z,27.02
2022-12-18T20:29:08.349Z,25.10
2022-12-18T20:31:35.711Z,24.50
2022-12-18T20:34:03.776Z,20.27
2022-12-18T20:36:37.638Z,23.38
2022-12-18T20:39:09.831Z,27.75
2022-12-18T20:41:38.991Z,27.90
2022-12-18T20:44:23.476Z,23.77
2022-12-18T20:47:08.721Z,25.45
2022-12-18T20:49:49.379Z,23.27
2022-12-18T20:52:16.379Z,27.85
2022-12-18T20:54:45.143Z,27.55
2022-12-18T20:57:19.860Z,25.90
2022-12-18T20:59:48.436Z,31.77
2022-12-18T21:02:16.601Z,29.05
2022-12-18T21:04:43.958Z,26.98
2022-12-18T21:07:11.215Z,28.13
2022-12-18T21:09:38.761Z,31.80
2022-12-18T21:12:35.163Z,28.20
2022-12-18T21:15:10.026Z,30.40
2022-12-18T21:17:39.440Z,28.83
2022-12-18T21:20:17.271Z,26.38
2022-12-18T21:22:44.972Z,26.83
2022-12-18T21:25:12.382Z,26.75
2022-12-18T21:27:39.615Z,25.25
2022-12-18T21:30:07.644Z,26.90
2022-12-18T21:32:35.587Z,25.30
2022-12-18T21:35:02.695Z,25.17
2022-12-18T21:37:29.776Z,24.48
2022-12-18T21:39:56.762Z,29.13
2022-12-18T21:42:42.988Z,29.30
2022-12-18T21:45:12.197Z,31.02
2022-12-18T21:47:40.122Z,26.73
2022-12-18T21:50:07.565Z,27.75
2022-12-18T21:52:35.633Z,30.30
2022-12-18T21:55:09.044Z,33.85
2022-12-18T21:57:40.178Z,33.22
2022-12-18T22:00:18.408Z,32.05
2022-12-18T22:02:47.419Z,27.38
2022-12-18T22:05:14.707Z,26.65
2022-12-18T22:07:41.776Z,27.23
2022-12-18T22:10:09.181Z,33.70
2022-12-18T22:12:43.429Z,29.58
2022-12-18T22:15:21.501Z,31.10
2022-12-18T22:17:50.591Z,33.08
2022-12-18T22:20:19.952Z,30.20
2022-12-18T22:22:48.574Z,27.08
2022-12-18T22:25:15.687Z,33.15
2022-12-18T22:27:43.019Z,30.17
2022-12-18T22:30:14.418Z,27.15
2022-12-18T22:32:41.807Z,30.23
2022-12-18T22:35:14.284Z,36.17
2022-12-18T22:37:42.959Z,31.73
2022-12-18T22:40:23.718Z,27.20
2022-12-18T22:42:51.780Z,39.80
2022-12-18T22:45:20.296Z,33.10
2022-12-18T22:47:47.334Z,32.58
2022-12-18T22:50:14.929Z,32.55
2022-12-18T22:52:42.542Z,36.17
2022-12-18T22:55:10.153Z,32.10
2022-12-18T22:57:37.529Z,32.05
2022-12-18T23:00:10.313Z,38.60
2022-12-18T23:02:37.593Z,36.08
2022-12-18T23:05:08.530Z,33.95
2022-12-18T23:07:36.632Z,30.23
2022-12-18T23:10:04.112Z,37.83
2022-12-18T23:12:31.163Z,38.35
2022-12-18T23:14:59.974Z,39.40
2022-12-18T23:17:26.995Z,31.70
2022-12-18T23:19:54.084Z,34.55
2022-12-18T23:22:21.154Z,35.28
2022-12-18T23:24:48.180Z,36.85
2022-12-18T23:27:15.193Z,34.47
2022-12-18T23:29:42.437Z,39.22
2022-12-18T23:32:10.567Z,33.25
2022-12-18T23:34:37.683Z,34.95
2022-12-18T23:37:06.198Z,39.65
2022-12-18T23:39:33.336Z,36.92
2022-12-18T23:42:00.592Z,33.88
2022-12-18T23:44:28.217Z,37.95
2022-12-18T23:46:55.582Z,38.50
2022-12-18T23:49:22.917Z,42.72
2022-12-18T23:51:50.445Z,37.22
2022-12-18T23:54:17.640Z,40.53
2022-12-18T23:56:49.785Z,40.20
2022-12-18T23:59:19.356Z,32.72
